sensor_id;sensor_type;location;lat;lon;timestamp;pressure;altitude;pressure_sealevel;temperature
73673;BMP280;61972;19.480;-99.240;2022-11-15T00:00:34;77587.00;;;28.57
73673;BMP280;61972;19.480;-99.240;2022-11-15T00:03:00;77588.53;;;28.56
73673;BMP280;61972;19.480;-99.240;2022-11-15T00:05:26;77600.59;;;28.55
73673;BMP280;61972;19.480;-99.240;2022-11-15T00:07:52;77594.91;;;28.57
73673;BMP280;61972;19.480;-99.240;2022-11-15T00:10:18;77594.91;;;28.57
73673;BMP280;61972;19.480;-99.240;2022-11-15T00:12:45;77601.69;;;28.56
73673;BMP280;61972;19.480;-99.240;2022-11-15T00:15:11;77604.31;;;28.56
73673;BMP280;61972;19.480;-99.240;2022-11-15T00:17:37;77604.88;;;28.56
73673;BMP280;61972;19.480;-99.240;2022-11-15T00:20:03;77613.75;;;28.55
73673;BMP280;61972;19.480;-99.240;2022-11-15T00:22:33;77616.22;;;28.52
73673;BMP280;61972;19.480;-99.240;2022-11-15T00:24:59;77617.19;;;28.51
73673;BMP280;61972;19.480;-99.240;2022-11-15T00:27:25;77625.63;;;28.51
73673;BMP280;61972;19.480;-99.240;2022-11-15T00:29:52;77623.97;;;28.50
73673;BMP280;61972;19.480;-99.240;2022-11-15T00:32:19;77623.28;;;28.47
73673;BMP280;61972;19.480;-99.240;2022-11-15T00:34:45;77632.69;;;28.45
73673;BMP280;61972;19.480;-99.240;2022-11-15T00:37:11;77634.19;;;28.44
73673;BMP280;61972;19.480;-99.240;2022-11-15T00:39:37;77637.25;;;28.42
73673;BMP280;61972;19.480;-99.240;2022-11-15T00:42:03;77640.31;;;28.40
73673;BMP280;61972;19.480;-99.240;2022-11-15T00:44:29;77639.19;;;28.39
73673;BMP280;61972;19.480;-99.240;2022-11-15T00:46:55;77644.88;;;28.37
73673;BMP280;61972;19.480;-99.240;2022-11-15T00:49:21;77652.19;;;28.37
73673;BMP280;61972;19.480;-99.240;2022-11-15T00:51:48;77653.28;;;28.38
73673;BMP280;61972;19.480;-99.240;2022-11-15T00:54:14;77650.13;;;28.37
73673;BMP280;61972;19.480;-99.240;2022-11-15T00:56:40;77654.81;;;28.37
73673;BMP280;61972;19.480;-99.240;2022-11-15T00:59:06;77660.63;;;28.37
73673;BMP280;61972;19.480;-99.240;2022-11-15T01:01:32;77658.41;;;28.35
73673;BMP280;61972;19.480;-99.240;2022-11-15T01:03:58;77664.63;;;28.34
73673;BMP280;61972;19.480;-99.240;2022-11-15T01:06:27;77667.25;;;28.34
73673;BMP280;61972;19.480;-99.240;2022-11-15T01:08:53;77673.47;;;28.32
73673;BMP280;61972;19.480;-99.240;2022-11-15T01:11:20;77668.09;;;28.30
73673;BMP280;61972;19.480;-99.240;2022-11-15T01:13:46;77665.44;;;28.30
73673;BMP280;61972;19.480;-99.240;2022-11-15T01:16:15;77677.09;;;28.31
73673;BMP280;61972;19.480;-99.240;2022-11-15T01:18:43;77675.00;;;28.31
73673;BMP280;61972;19.480;-99.240;2022-11-15T01:21:12;77682.34;;;28.31
73673;BMP280;61972;19.480;-99.240;2022-11-15T01:23:38;77674.44;;;28.31
73673;BMP280;61972;19.480;-99.240;2022-11-15T01:26:06;77684.97;;;28.31
73673;BMP280;61972;19.480;-99.240;2022-11-15T01:28:35;77680.66;;;28.29
73673;BMP280;61972;19.480;-99.240;2022-11-15T01:31:03;77689.09;;;28.30
73673;BMP280;61972;19.480;-99.240;2022-11-15T01:33:30;77691.19;;;28.29
73673;BMP280;61972;19.480;-99.240;2022-11-15T01:35:56;77695.34;;;28.28
73673;BMP280;61972;19.480;-99.240;2022-11-15T01:38:22;77700.59;;;28.28
73673;BMP280;61972;19.480;-99.240;2022-11-15T01:40:49;77695.72;;;28.26
73673;BMP280;61972;19.480;-99.240;2022-11-15T01:43:33;77697.78;;;28.25
73673;BMP280;61972;19.480;-99.240;2022-11-15T01:48:42;77700.28;;;28.23
73673;BMP280;61972;19.480;-99.240;2022-11-15T01:51:11;77705.53;;;28.23
73673;BMP280;61972;19.480;-99.240;2022-11-15T01:53:42;77709.16;;;28.21
73673;BMP280;61972;19.480;-99.240;2022-11-15T01:56:14;77716.47;;;28.21
73673;BMP280;61972;19.480;-99.240;2022-11-15T01:58:43;77718.53;;;28.20
73673;BMP280;61972;19.480;-99.240;2022-11-15T02:01:14;77719.66;;;28.21
73673;BMP280;61972;19.480;-99.240;2022-11-15T02:06:46;77718.53;;;28.20
73673;BMP280;61972;19.480;-99.240;2022-11-15T02:09:14;77716.88;;;28.19
73673;BMP280;61972;19.480;-99.240;2022-11-15T02:11:41;77725.72;;;28.17
73673;BMP280;61972;19.480;-99.240;2022-11-15T02:14:09;77736.78;;;28.18
73673;BMP280;61972;19.480;-99.240;2022-11-15T02:22:34;77742.88;;;28.14
73673;BMP280;61972;19.480;-99.240;2022-11-15T02:25:37;77746.44;;;28.12
73673;BMP280;61972;19.480;-99.240;2022-11-15T02:30:49;77759.97;;;28.10
73673;BMP280;61972;19.480;-99.240;2022-11-15T02:33:25;77759.97;;;28.10
73673;BMP280;61972;19.480;-99.240;2022-11-15T02:35:58;77767.72;;;28.07
73673;BMP280;61972;19.480;-99.240;2022-11-15T02:38:29;77771.84;;;28.06
73673;BMP280;61972;19.480;-99.240;2022-11-15T02:43:32;77768.53;;;28.03
73673;BMP280;61972;19.480;-99.240;2022-11-15T02:46:27;77782.09;;;28.01
73673;BMP280;61972;19.480;-99.240;2022-11-15T02:49:14;77780.97;;;28.00
73673;BMP280;61972;19.480;-99.240;2022-11-15T02:51:42;77780.97;;;28.00
73673;BMP280;61972;19.480;-99.240;2022-11-15T02:54:17;77789.25;;;27.98
73673;BMP280;61972;19.480;-99.240;2022-11-15T02:56:45;77793.94;;;27.98
73673;BMP280;61972;19.480;-99.240;2022-11-15T03:07:20;77800.00;;;27.94
73673;BMP280;61972;19.480;-99.240;2022-11-15T03:09:58;77811.06;;;27.94
73673;BMP280;61972;19.480;-99.240;2022-11-15T03:14:54;77816.91;;;27.95
73673;BMP280;61972;19.480;-99.240;2022-11-15T03:17:58;77818.94;;;27.94
73673;BMP280;61972;19.480;-99.240;2022-11-15T03:20:22;77812.75;;;27.96
73673;BMP280;61972;19.480;-99.240;2022-11-15T03:22:51;77825.47;;;27.98
73673;BMP280;61972;19.480;-99.240;2022-11-15T03:25:24;77820.22;;;27.98
73673;BMP280;61972;19.480;-99.240;2022-11-15T03:27:54;77824.91;;;27.97
73673;BMP280;61972;19.480;-99.240;2022-11-15T03:30:21;77828.66;;;27.98
73673;BMP280;61972;19.480;-99.240;2022-11-15T03:32:53;77827.16;;;27.99
73673;BMP280;61972;19.480;-99.240;2022-11-15T03:35:27;77830.88;;;28.00
73673;BMP280;61972;19.480;-99.240;2022-11-15T03:40:47;77831.28;;;27.98
73673;BMP280;61972;19.480;-99.240;2022-11-15T03:46:27;77834.31;;;27.96
73673;BMP280;61972;19.480;-99.240;2022-11-15T03:48:58;77834.31;;;27.96
73673;BMP280;61972;19.480;-99.240;2022-11-15T03:51:26;77834.16;;;27.94
73673;BMP280;61972;19.480;-99.240;2022-11-15T03:53:52;77835.13;;;27.92
73673;BMP280;61972;19.480;-99.240;2022-11-15T03:56:18;77839.81;;;27.92
73673;BMP280;61972;19.480;-99.240;2022-11-15T03:58:44;77836.78;;;27.94
73673;BMP280;61972;19.480;-99.240;2022-11-15T04:01:10;77837.34;;;27.94
73673;BMP280;61972;19.480;-99.240;2022-11-15T04:03:37;77839.25;;;27.91
73673;BMP280;61972;19.480;-99.240;2022-11-15T04:06:03;77838.69;;;27.91
73673;BMP280;61972;19.480;-99.240;2022-11-15T04:08:29;77842.31;;;27.89
73673;BMP280;61972;19.480;-99.240;2022-11-15T04:10:58;77840.63;;;27.87
73673;BMP280;61972;19.480;-99.240;2022-11-15T04:13:24;77844.75;;;27.86
73673;BMP280;61972;19.480;-99.240;2022-11-15T04:15:51;77843.25;;;27.87
73673;BMP280;61972;19.480;-99.240;2022-11-15T04:18:17;77835.84;;;27.95
73673;BMP280;61972;19.480;-99.240;2022-11-15T04:20:44;77851.50;;;28.02
73673;BMP280;61972;19.480;-99.240;2022-11-15T04:23:28;77847.66;;;28.08
73673;BMP280;61972;19.480;-99.240;2022-11-15T04:26:16;77850.59;;;28.14
73673;BMP280;61972;19.480;-99.240;2022-11-15T04:28:43;77851.28;;;28.17
73673;BMP280;61972;19.480;-99.240;2022-11-15T04:31:28;77847.84;;;28.21
73673;BMP280;61972;19.480;-99.240;2022-11-15T04:33:54;77848.56;;;28.24
73673;BMP280;61972;19.480;-99.240;2022-11-15T04:36:21;77846.47;;;28.24
73673;BMP280;61972;19.480;-99.240;2022-11-15T04:39:05;77850.22;;;28.25
73673;BMP280;61972;19.480;-99.240;2022-11-15T04:41:31;77853.94;;;28.26
73673;BMP280;61972;19.480;-99.240;2022-11-15T04:43:58;77855.63;;;28.28
73673;BMP280;61972;19.480;-99.240;2022-11-15T04:46:27;77857.69;;;28.27
73673;BMP280;61972;19.480;-99.240;2022-11-15T04:48:56;77862.00;;;28.29
73673;BMP280;61972;19.480;-99.240;2022-11-15T04:51:22;77859.38;;;28.29
73673;BMP280;61972;19.480;-99.240;2022-11-15T04:53:48;77857.28;;;28.30
73673;BMP280;61972;19.480;-99.240;2022-11-15T04:56:14;77860.47;;;28.30
73673;BMP280;61972;19.480;-99.240;2022-11-15T04:58:40;77866.28;;;28.31
73673;BMP280;61972;19.480;-99.240;2022-11-15T05:01:08;77865.88;;;28.33
73673;BMP280;61972;19.480;-99.240;2022-11-15T05:03:34;77858.53;;;28.33
73673;BMP280;61972;19.480;-99.240;2022-11-15T05:06:19;77867.94;;;28.32
73673;BMP280;61972;19.480;-99.240;2022-11-15T05:08:45;77862.69;;;28.32
73673;BMP280;61972;19.480;-99.240;2022-11-15T05:11:11;77864.22;;;28.31
73673;BMP280;61972;19.480;-99.240;2022-11-15T05:13:37;77872.09;;;28.31
73673;BMP280;61972;19.480;-99.240;2022-11-15T05:16:09;77869.47;;;28.31
73673;BMP280;61972;19.480;-99.240;2022-11-15T05:18:36;77877.34;;;28.31
73673;BMP280;61972;19.480;-99.240;2022-11-15T05:21:10;77866.84;;;28.31
73673;BMP280;61972;19.480;-99.240;2022-11-15T05:23:37;77870.97;;;28.30
73673;BMP280;61972;19.480;-99.240;2022-11-15T05:26:04;77875.69;;;28.30
73673;BMP280;61972;19.480;-99.240;2022-11-15T05:28:31;77880.38;;;28.29
73673;BMP280;61972;19.480;-99.240;2022-11-15T05:31:11;77890.91;;;28.29
73673;BMP280;61972;19.480;-99.240;2022-11-15T05:33:41;77879.28;;;28.28
73673;BMP280;61972;19.480;-99.240;2022-11-15T05:36:16;77877.19;;;28.29
73673;BMP280;61972;19.480;-99.240;2022-11-15T05:38:45;77879.28;;;28.28
73673;BMP280;61972;19.480;-99.240;2022-11-15T05:41:12;77873.31;;;28.25
73673;BMP280;61972;19.480;-99.240;2022-11-15T05:43:40;77874.84;;;28.24
73673;BMP280;61972;19.480;-99.240;2022-11-15T05:46:08;77873.72;;;28.23
73673;BMP280;61972;19.480;-99.240;2022-11-15T05:48:36;77868.47;;;28.23
73673;BMP280;61972;19.480;-99.240;2022-11-15T05:51:04;77868.47;;;28.23
73673;BMP280;61972;19.480;-99.240;2022-11-15T05:53:30;77872.63;;;28.22
73673;BMP280;61972;19.480;-99.240;2022-11-15T05:55:57;77871.50;;;28.21
73673;BMP280;61972;19.480;-99.240;2022-11-15T05:58:23;77873.16;;;28.22
73673;BMP280;61972;19.480;-99.240;2022-11-15T06:00:49;77873.72;;;28.23
73673;BMP280;61972;19.480;-99.240;2022-11-15T06:03:18;77873.72;;;28.23
73673;BMP280;61972;19.480;-99.240;2022-11-15T06:05:44;77872.63;;;28.22
73673;BMP280;61972;19.480;-99.240;2022-11-15T06:08:10;77871.50;;;28.21
73673;BMP280;61972;19.480;-99.240;2022-11-15T06:10:37;77876.75;;;28.21
73673;BMP280;61972;19.480;-99.240;2022-11-15T06:13:04;77874.53;;;28.19
73673;BMP280;61972;19.480;-99.240;2022-11-15T06:15:32;77868.72;;;28.18
73673;BMP280;61972;19.480;-99.240;2022-11-15T06:17:59;77870.22;;;28.17
73673;BMP280;61972;19.480;-99.240;2022-11-15T06:20:27;77871.75;;;28.16
73673;BMP280;61972;19.480;-99.240;2022-11-15T06:23:00;77875.34;;;28.15
73673;BMP280;61972;19.480;-99.240;2022-11-15T06:25:28;77872.16;;;28.14
73673;BMP280;61972;19.480;-99.240;2022-11-15T06:27:55;77868.97;;;28.14
73673;BMP280;61972;19.480;-99.240;2022-11-15T06:30:25;77863.72;;;28.14
73673;BMP280;61972;19.480;-99.240;2022-11-15T06:32:58;77861.50;;;28.12
73673;BMP280;61972;19.480;-99.240;2022-11-15T06:35:25;77861.50;;;28.12
73673;BMP280;61972;19.480;-99.240;2022-11-15T06:37:51;77863.00;;;28.11
73673;BMP280;61972;19.480;-99.240;2022-11-15T06:40:17;77859.25;;;28.10
73673;BMP280;61972;19.480;-99.240;2022-11-15T06:42:43;77857.19;;;28.10
73673;BMP280;61972;19.480;-99.240;2022-11-15T06:45:09;77854.56;;;28.10
73673;BMP280;61972;19.480;-99.240;2022-11-15T06:47:35;77857.03;;;28.07
73673;BMP280;61972;19.480;-99.240;2022-11-15T06:50:09;77859.66;;;28.07
73673;BMP280;61972;19.480;-99.240;2022-11-15T06:52:35;77855.41;;;28.06
73673;BMP280;61972;19.480;-99.240;2022-11-15T06:55:01;77853.16;;;28.04
73673;BMP280;61972;19.480;-99.240;2022-11-15T06:57:28;77858.41;;;28.04
73673;BMP280;61972;19.480;-99.240;2022-11-15T06:59:54;77851.50;;;28.02
73673;BMP280;61972;19.480;-99.240;2022-11-15T07:02:20;77852.06;;;28.03
73673;BMP280;61972;19.480;-99.240;2022-11-15T07:04:46;77856.19;;;28.02
73673;BMP280;61972;19.480;-99.240;2022-11-15T07:07:12;77851.88;;;28.00
73673;BMP280;61972;19.480;-99.240;2022-11-15T07:09:38;77853.41;;;27.99
73673;BMP280;61972;19.480;-99.240;2022-11-15T07:12:05;77844.41;;;27.98
73673;BMP280;61972;19.480;-99.240;2022-11-15T07:14:31;77848.16;;;27.99
73673;BMP280;61972;19.480;-99.240;2022-11-15T07:16:57;77845.94;;;27.97
73673;BMP280;61972;19.480;-99.240;2022-11-15T07:19:23;77850.09;;;27.96
73673;BMP280;61972;19.480;-99.240;2022-11-15T07:21:49;77848.97;;;27.95
73673;BMP280;61972;19.480;-99.240;2022-11-15T07:24:15;77846.34;;;27.95
73673;BMP280;61972;19.480;-99.240;2022-11-15T07:26:42;77847.84;;;27.94
73673;BMP280;61972;19.480;-99.240;2022-11-15T07:29:08;77845.22;;;27.94
73673;BMP280;61972;19.480;-99.240;2022-11-15T07:31:34;77843.00;;;27.92
73673;BMP280;61972;19.480;-99.240;2022-11-15T07:34:01;77849.22;;;27.91
73673;BMP280;61972;19.480;-99.240;2022-11-15T07:36:27;77848.66;;;27.90
73673;BMP280;61972;19.480;-99.240;2022-11-15T07:38:53;77849.63;;;27.88
73673;BMP280;61972;19.480;-99.240;2022-11-15T07:41:22;77849.47;;;27.86
73673;BMP280;61972;19.480;-99.240;2022-11-15T07:43:51;77845.34;;;27.87
73673;BMP280;61972;19.480;-99.240;2022-11-15T07:46:18;77843.66;;;27.85
73673;BMP280;61972;19.480;-99.240;2022-11-15T07:48:44;77833.56;;;27.83
73673;BMP280;61972;19.480;-99.240;2022-11-15T07:51:15;77834.50;;;27.82
73673;BMP280;61972;19.480;-99.240;2022-11-15T07:53:42;77841.25;;;27.81
73673;BMP280;61972;19.480;-99.240;2022-11-15T07:56:09;77846.91;;;27.79
73673;BMP280;61972;19.480;-99.240;2022-11-15T07:58:36;77847.34;;;27.77
73673;BMP280;61972;19.480;-99.240;2022-11-15T08:01:04;77837.22;;;27.75
73673;BMP280;61972;19.480;-99.240;2022-11-15T08:03:30;77840.25;;;27.73
73673;BMP280;61972;19.480;-99.240;2022-11-15T08:05:56;77840.81;;;27.73
73673;BMP280;61972;19.480;-99.240;2022-11-15T08:08:22;77843.84;;;27.71
73673;BMP280;61972;19.480;-99.240;2022-11-15T08:10:48;77835.41;;;27.70
73673;BMP280;61972;19.480;-99.240;2022-11-15T08:13:15;77841.63;;;27.69
73673;BMP280;61972;19.480;-99.240;2022-11-15T08:15:41;77845.22;;;27.67
73673;BMP280;61972;19.480;-99.240;2022-11-15T08:18:14;77834.72;;;27.67
73673;BMP280;61972;19.480;-99.240;2022-11-15T08:20:41;77833.03;;;27.66
73673;BMP280;61972;19.480;-99.240;2022-11-15T08:23:10;77830.28;;;27.63
73673;BMP280;61972;19.480;-99.240;2022-11-15T08:25:36;77825.03;;;27.63
73673;BMP280;61972;19.480;-99.240;2022-11-15T08:28:05;77832.91;;;27.63
73673;BMP280;61972;19.480;-99.240;2022-11-15T08:30:36;77829.16;;;27.62
73673;BMP280;61972;19.480;-99.240;2022-11-15T08:33:03;77826.94;;;27.60
73673;BMP280;61972;19.480;-99.240;2022-11-15T08:35:33;77821.69;;;27.60
73673;BMP280;61972;19.480;-99.240;2022-11-15T08:38:02;77818.47;;;27.60
73673;BMP280;61972;19.480;-99.240;2022-11-15T08:40:28;77823.72;;;27.60
73673;BMP280;61972;19.480;-99.240;2022-11-15T08:42:55;77814.69;;;27.49
73673;BMP280;61972;19.480;-99.240;2022-11-15T08:45:21;77817.09;;;27.37
73673;BMP280;61972;19.480;-99.240;2022-11-15T08:47:47;77813.19;;;27.33
73673;BMP280;61972;19.480;-99.240;2022-11-15T08:50:13;77814.16;;;27.31
73673;BMP280;61972;19.480;-99.240;2022-11-15T08:52:39;77808.19;;;27.28
73673;BMP280;61972;19.480;-99.240;2022-11-15T08:55:06;77803.19;;;27.24
73673;BMP280;61972;19.480;-99.240;2022-11-15T08:57:32;77816.16;;;27.21
73673;BMP280;61972;19.480;-99.240;2022-11-15T08:59:58;77811.69;;;27.17
73673;BMP280;61972;19.480;-99.240;2022-11-15T09:02:24;77813.63;;;27.14
73673;BMP280;61972;19.480;-99.240;2022-11-15T09:04:50;77812.91;;;27.11
73673;BMP280;61972;19.480;-99.240;2022-11-15T09:07:16;77814.25;;;27.07
73673;BMP280;61972;19.480;-99.240;2022-11-15T09:09:42;77818.78;;;27.04
73673;BMP280;61972;19.480;-99.240;2022-11-15T09:12:09;77812.25;;;27.01
73673;BMP280;61972;19.480;-99.240;2022-11-15T09:14:35;77816.25;;;26.97
73673;BMP280;61972;19.480;-99.240;2022-11-15T09:17:01;77814.03;;;26.95
73673;BMP280;61972;19.480;-99.240;2022-11-15T09:19:28;77815.91;;;26.92
73673;BMP280;61972;19.480;-99.240;2022-11-15T09:21:54;77816.31;;;26.90
73673;BMP280;61972;19.480;-99.240;2022-11-15T09:24:20;77818.22;;;26.87
73673;BMP280;61972;19.480;-99.240;2022-11-15T09:26:50;77823.31;;;26.84
73673;BMP280;61972;19.480;-99.240;2022-11-15T09:29:17;77813.63;;;26.80
73673;BMP280;61972;19.480;-99.240;2022-11-15T09:31:43;77824.50;;;26.78
73673;BMP280;61972;19.480;-99.240;2022-11-15T09:34:09;77823.78;;;26.75
73673;BMP280;61972;19.480;-99.240;2022-11-15T09:36:36;77823.63;;;26.72
73673;BMP280;61972;19.480;-99.240;2022-11-15T09:39:03;77833.38;;;26.69
73673;BMP280;61972;19.480;-99.240;2022-11-15T09:50:12;77828.84;;;26.55
73673;BMP280;61972;19.480;-99.240;2022-11-15T09:52:42;77818.75;;;26.53
73673;BMP280;61972;19.480;-99.240;2022-11-15T09:55:11;77838.97;;;26.50
73673;BMP280;61972;19.480;-99.240;2022-11-15T09:57:55;77835.09;;;26.47
73673;BMP280;61972;19.480;-99.240;2022-11-15T10:00:37;77824.47;;;26.44
73673;BMP280;61972;19.480;-99.240;2022-11-15T10:03:16;77825.22;;;26.40
73673;BMP280;61972;19.480;-99.240;2022-11-15T10:05:46;77830.31;;;26.37
73673;BMP280;61972;19.480;-99.240;2022-11-15T10:08:35;77828.47;;;26.33
73673;BMP280;61972;19.480;-99.240;2022-11-15T10:11:06;77832.97;;;26.30
73673;BMP280;61972;19.480;-99.240;2022-11-15T10:13:35;77829.63;;;26.27
73673;BMP280;61972;19.480;-99.240;2022-11-15T10:16:22;77841.63;;;26.26
73673;BMP280;61972;19.480;-99.240;2022-11-15T10:22:03;77841.69;;;26.19
73673;BMP280;61972;19.480;-99.240;2022-11-15T10:24:37;77841.53;;;26.16
73673;BMP280;61972;19.480;-99.240;2022-11-15T10:27:13;77848.28;;;26.15
73673;BMP280;61972;19.480;-99.240;2022-11-15T10:29:44;77844.94;;;26.12
73673;BMP280;61972;19.480;-99.240;2022-11-15T10:32:12;77849.63;;;26.12
73673;BMP280;61972;19.480;-99.240;2022-11-15T10:34:39;77852.06;;;26.09
73673;BMP280;61972;19.480;-99.240;2022-11-15T10:37:06;77855.63;;;26.08
73673;BMP280;61972;19.480;-99.240;2022-11-15T10:39:32;77855.47;;;26.05
73673;BMP280;61972;19.480;-99.240;2022-11-15T10:42:18;77852.13;;;26.02
73673;BMP280;61972;19.480;-99.240;2022-11-15T10:44:50;77851.91;;;25.99
73673;BMP280;61972;19.480;-99.240;2022-11-15T10:47:37;77854.94;;;25.97
73673;BMP280;61972;19.480;-99.240;2022-11-15T10:50:25;77849.16;;;25.97
73673;BMP280;61972;19.480;-99.240;2022-11-15T10:52:52;77853.25;;;25.96
73673;BMP280;61972;19.480;-99.240;2022-11-15T10:55:30;77854.63;;;25.92
73673;BMP280;61972;19.480;-99.240;2022-11-15T10:58:05;77858.19;;;25.91
73673;BMP280;61972;19.480;-99.240;2022-11-15T11:00:37;77857.06;;;25.90
73673;BMP280;61972;19.480;-99.240;2022-11-15T11:03:29;77854.25;;;25.87
73673;BMP280;61972;19.480;-99.240;2022-11-15T11:06:24;77855.59;;;25.83
73673;BMP280;61972;19.480;-99.240;2022-11-15T11:08:59;77853.94;;;25.82
73673;BMP280;61972;19.480;-99.240;2022-11-15T11:11:46;77851.13;;;25.79
73673;BMP280;61972;19.480;-99.240;2022-11-15T11:14:19;77854.16;;;25.77
73673;BMP280;61972;19.480;-99.240;2022-11-15T11:22:26;77867.84;;;25.71
73673;BMP280;61972;19.480;-99.240;2022-11-15T11:27:47;77866.16;;;25.69
73673;BMP280;61972;19.480;-99.240;2022-11-15T11:30:19;77863.91;;;25.67
73673;BMP280;61972;19.480;-99.240;2022-11-15T11:49:49;77893.19;;;25.51
73673;BMP280;61972;19.480;-99.240;2022-11-15T11:52:17;77897.28;;;25.50
73673;BMP280;61972;19.480;-99.240;2022-11-15T12:00:25;77906.28;;;25.43
73673;BMP280;61972;19.480;-99.240;2022-11-15T12:03:12;77899.94;;;25.42
73673;BMP280;61972;19.480;-99.240;2022-11-15T12:05:51;77899.94;;;25.42
73673;BMP280;61972;19.480;-99.240;2022-11-15T12:08:36;77909.25;;;25.41
73673;BMP280;61972;19.480;-99.240;2022-11-15T12:11:11;77901.41;;;25.41
73673;BMP280;61972;19.480;-99.240;2022-11-15T12:13:41;77907.06;;;25.39
73673;BMP280;61972;19.480;-99.240;2022-11-15T12:16:31;77899.56;;;25.37
73673;BMP280;61972;19.480;-99.240;2022-11-15T12:19:01;77908.34;;;25.36
73673;BMP280;61972;19.480;-99.240;2022-11-15T12:21:47;77917.53;;;25.32
73673;BMP280;61972;19.480;-99.240;2022-11-15T12:27:18;77917.91;;;25.30
73673;BMP280;61972;19.480;-99.240;2022-11-15T12:29:52;77919.97;;;25.30
73673;BMP280;61972;19.480;-99.240;2022-11-15T12:34:52;77929.16;;;25.26
73673;BMP280;61972;19.480;-99.240;2022-11-15T12:37:49;77919.59;;;25.24
73673;BMP280;61972;19.480;-99.240;2022-11-15T12:40:33;77926.91;;;25.24
73673;BMP280;61972;19.480;-99.240;2022-11-15T12:43:35;77925.81;;;25.23
73673;BMP280;61972;19.480;-99.240;2022-11-15T12:45:51;77925.03;;;25.20
73673;BMP280;61972;19.480;-99.240;2022-11-15T13:06:46;77960.94;;;25.09
73673;BMP280;61972;19.480;-99.240;2022-11-15T13:12:07;77964.88;;;25.06
73673;BMP280;61972;19.480;-99.240;2022-11-15T13:19:46;77973.44;;;25.02
73673;BMP280;61972;19.480;-99.240;2022-11-15T13:22:13;77975.50;;;25.01
73673;BMP280;61972;19.480;-99.240;2022-11-15T13:24:59;77972.72;;;24.99
73673;BMP280;61972;19.480;-99.240;2022-11-15T13:27:26;77980.56;;;24.99
73673;BMP280;61972;19.480;-99.240;2022-11-15T13:29:53;77983.00;;;24.96
73673;BMP280;61972;19.480;-99.240;2022-11-15T13:32:19;77989.13;;;24.95
73673;BMP280;61972;19.480;-99.240;2022-11-15T13:34:47;77992.69;;;24.93
73673;BMP280;61972;19.480;-99.240;2022-11-15T13:39:47;77995.69;;;24.91
73673;BMP280;61972;19.480;-99.240;2022-11-15T13:42:18;77994.56;;;24.90
73673;BMP280;61972;19.480;-99.240;2022-11-15T13:45:02;77995.50;;;24.88
73673;BMP280;61972;19.480;-99.240;2022-11-15T13:47:29;77997.53;;;24.88
73673;BMP280;61972;19.480;-99.240;2022-11-15T13:49:57;77996.47;;;24.87
73673;BMP280;61972;19.480;-99.240;2022-11-15T13:52:27;78001.47;;;24.84
73673;BMP280;61972;19.480;-99.240;2022-11-15T13:57:37;78002.44;;;24.83
73673;BMP280;61972;19.480;-99.240;2022-11-15T14:00:30;78001.31;;;24.82
73673;BMP280;61972;19.480;-99.240;2022-11-15T14:03:06;78004.28;;;24.80
73673;BMP280;61972;19.480;-99.240;2022-11-15T14:05:33;78008.97;;;24.79
73673;BMP280;61972;19.480;-99.240;2022-11-15T14:11:26;78013.44;;;24.76
73673;BMP280;61972;19.480;-99.240;2022-11-15T14:16:47;78024.81;;;24.74
73673;BMP280;61972;19.480;-99.240;2022-11-15T14:19:34;78028.94;;;24.73
73673;BMP280;61972;19.480;-99.240;2022-11-15T14:22:18;78023.13;;;24.73
73673;BMP280;61972;19.480;-99.240;2022-11-15T14:25:13;78025.22;;;24.72
73673;BMP280;61972;19.480;-99.240;2022-11-15T14:27:42;78030.78;;;24.70
73673;BMP280;61972;19.480;-99.240;2022-11-15T14:30:15;78029.69;;;24.69
73673;BMP280;61972;19.480;-99.240;2022-11-15T14:32:48;78040.66;;;24.70
73673;BMP280;61972;19.480;-99.240;2022-11-15T14:35:20;78031.72;;;24.69
73673;BMP280;61972;19.480;-99.240;2022-11-15T14:37:47;78040.13;;;24.69
73673;BMP280;61972;19.480;-99.240;2022-11-15T14:40:16;78044.78;;;24.69
73673;BMP280;61972;19.480;-99.240;2022-11-15T14:42:44;78036.41;;;24.68
73673;BMP280;61972;19.480;-99.240;2022-11-15T14:45:20;78043.66;;;24.68
73673;BMP280;61972;19.480;-99.240;2022-11-15T14:47:47;78053.00;;;24.67
73673;BMP280;61972;19.480;-99.240;2022-11-15T14:50:16;78046.09;;;24.65
73673;BMP280;61972;19.480;-99.240;2022-11-15T14:52:43;78052.81;;;24.64
73673;BMP280;61972;19.480;-99.240;2022-11-15T14:55:18;78048.50;;;24.63
73673;BMP280;61972;19.480;-99.240;2022-11-15T14:57:45;78051.69;;;24.63
73673;BMP280;61972;19.480;-99.240;2022-11-15T15:00:12;78053.16;;;24.62
73673;BMP280;61972;19.480;-99.240;2022-11-15T15:02:40;78042.72;;;24.62
73673;BMP280;61972;19.480;-99.240;2022-11-15T15:05:18;78052.63;;;24.62
73673;BMP280;61972;19.480;-99.240;2022-11-15T15:07:45;78045.72;;;24.60
73673;BMP280;61972;19.480;-99.240;2022-11-15T15:10:12;78042.00;;;24.59
73673;BMP280;61972;19.480;-99.240;2022-11-15T15:12:38;78037.69;;;24.58
73673;BMP280;61972;19.480;-99.240;2022-11-15T15:15:05;78040.88;;;24.58
73673;BMP280;61972;19.480;-99.240;2022-11-15T15:17:32;78034.16;;;24.59
73673;BMP280;61972;19.480;-99.240;2022-11-15T15:19:58;78038.28;;;24.58
73673;BMP280;61972;19.480;-99.240;2022-11-15T15:22:26;78031.91;;;24.57
73673;BMP280;61972;19.480;-99.240;2022-11-15T15:24:54;78036.00;;;24.56
73673;BMP280;61972;19.480;-99.240;2022-11-15T15:27:20;78040.09;;;24.55
73673;BMP280;61972;19.480;-99.240;2022-11-15T15:29:46;78043.09;;;24.53
73673;BMP280;61972;19.480;-99.240;2022-11-15T15:32:12;78039.34;;;24.52
73673;BMP280;61972;19.480;-99.240;2022-11-15T15:34:39;78041.97;;;24.52
73673;BMP280;61972;19.480;-99.240;2022-11-15T15:37:25;78045.53;;;24.50
73673;BMP280;61972;19.480;-99.240;2022-11-15T15:39:55;78049.06;;;24.49
73673;BMP280;61972;19.480;-99.240;2022-11-15T15:42:22;78046.84;;;24.47
73673;BMP280;61972;19.480;-99.240;2022-11-15T15:44:49;78044.59;;;24.45
73673;BMP280;61972;19.480;-99.240;2022-11-15T15:47:21;78040.50;;;24.46
73673;BMP280;61972;19.480;-99.240;2022-11-15T15:49:48;78044.22;;;24.47
73673;BMP280;61972;19.480;-99.240;2022-11-15T15:52:15;78047.94;;;24.48
73673;BMP280;61972;19.480;-99.240;2022-11-15T15:54:41;78043.47;;;24.51
73673;BMP280;61972;19.480;-99.240;2022-11-15T15:57:08;78036.75;;;24.52
73673;BMP280;61972;19.480;-99.240;2022-11-15T15:59:36;78045.16;;;24.52